createdAt,value
2018-06-04T00:00:24.322Z,100.00
2018-06-04T00:02:52.314Z,100.00
2018-06-04T00:05:20.372Z,100.00
2018-06-04T00:07:48.368Z,100.00
2018-06-04T00:10:16.376Z,100.00
2018-06-04T00:12:44.332Z,99.61
2018-06-04T00:15:12.310Z,100.00
2018-06-04T00:17:40.309Z,100.00
2018-06-04T00:20:08.390Z,100.00
2018-06-04T00:22:36.373Z,100.00
2018-06-04T00:25:04.419Z,100.00
2018-06-04T00:27:32.456Z,100.00
2018-06-04T00:30:00.456Z,100.00
2018-06-04T00:32:28.600Z,100.00
2018-06-04T00:34:56.619Z,100.00
2018-06-04T00:37:24.659Z,100.00
2018-06-04T00:39:52.762Z,100.00
2018-06-04T00:42:20.795Z,100.00
2018-06-04T00:44:48.867Z,100.00
2018-06-04T00:47:16.976Z,100.00
2018-06-04T00:49:45.068Z,100.00
2018-06-04T00:52:13.028Z,100.00
2018-06-04T00:54:41.024Z,100.00
2018-06-04T00:57:08.997Z,100.00
2018-06-04T00:59:37.102Z,100.00
2018-06-04T01:02:05.352Z,100.00
2018-06-04T01:04:33.330Z,100.00
2018-06-04T01:07:01.401Z,100.00
2018-06-04T01:09:29.393Z,100.00
2018-06-04T01:11:57.380Z,100.00
2018-06-04T01:14:25.321Z,100.00
2018-06-04T01:16:53.334Z,100.00
2018-06-04T01:19:21.439Z,100.00
2018-06-04T01:21:49.487Z,100.00
2018-06-04T01:24:17.540Z,100.00
2018-06-04T01:26:45.611Z,100.00
2018-06-04T01:29:13.716Z,100.00
2018-06-04T01:31:41.760Z,100.00
2018-06-04T01:34:09.796Z,100.00
2018-06-04T01:36:37.856Z,100.00
2018-06-04T01:39:07.343Z,100.00
2018-06-04T01:41:35.408Z,100.00
2018-06-04T01:44:03.705Z,100.00
2018-06-04T01:46:31.649Z,100.00
2018-06-04T01:48:59.677Z,100.00
2018-06-04T01:51:27.712Z,100.00
2018-06-04T01:53:55.737Z,100.00
2018-06-04T01:56:23.786Z,100.00
2018-06-04T01:58:51.768Z,100.00
2018-06-04T02:01:19.824Z,100.00
2018-06-04T02:03:47.841Z,100.00
2018-06-04T02:06:15.901Z,100.00
2018-06-04T02:08:44.060Z,100.00
2018-06-04T02:11:12.109Z,100.00
2018-06-04T02:13:40.097Z,100.00
2018-06-04T02:16:08.193Z,100.00
2018-06-04T02:18:36.187Z,100.00
2018-06-04T02:21:04.228Z,100.00
2018-06-04T02:23:32.345Z,100.00
2018-06-04T02:26:00.449Z,100.00
2018-06-04T02:28:28.493Z,100.00
2018-06-04T02:30:56.502Z,100.00
2018-06-04T02:33:24.463Z,100.00
2018-06-04T02:35:52.545Z,100.00
2018-06-04T02:38:20.541Z,100.00
2018-06-04T02:40:48.616Z,100.00
2018-06-04T02:43:16.623Z,100.00
2018-06-04T02:45:44.573Z,100.00
2018-06-04T02:48:12.545Z,100.00
2018-06-04T02:50:40.532Z,100.00
2018-06-04T02:53:08.649Z,100.00
2018-06-04T02:55:36.736Z,100.00
2018-06-04T02:58:04.780Z,100.00
2018-06-04T03:00:32.791Z,100.00
2018-06-04T03:03:00.763Z,100.00
2018-06-04T03:05:28.768Z,100.00
2018-06-04T03:07:56.784Z,100.00
2018-06-04T03:10:24.892Z,100.00
2018-06-04T03:12:52.989Z,100.00
2018-06-04T03:15:20.990Z,100.00
2018-06-04T03:17:49.079Z,100.00
2018-06-04T03:20:17.208Z,100.00
2018-06-04T03:22:45.287Z,100.00
2018-06-04T03:25:13.263Z,100.00
2018-06-04T03:27:41.256Z,100.00
2018-06-04T03:30:09.300Z,99.67
2018-06-04T03:32:37.630Z,100.00
2018-06-04T03:35:05.877Z,100.00
2018-06-04T03:37:33.859Z,100.00
2018-06-04T03:40:01.979Z,100.00
2018-06-04T03:42:29.956Z,100.00
2018-06-04T03:45:04.874Z,100.00
2018-06-04T03:47:32.990Z,100.00
2018-06-04T03:50:01.044Z,100.00
2018-06-04T03:52:28.995Z,100.00
2018-06-04T03:54:56.977Z,100.00
2018-06-04T03:57:25.077Z,100.00
2018-06-04T03:59:53.135Z,100.00
2018-06-04T04:02:21.288Z,100.00
2018-06-04T04:04:49.252Z,100.00
2018-06-04T04:07:17.417Z,100.00
2018-06-04T04:09:45.654Z,100.00
2018-06-04T04:12:13.754Z,100.00
2018-06-04T04:14:41.849Z,100.00
2018-06-04T04:17:09.870Z,100.00
2018-06-04T04:19:37.899Z,100.00
2018-06-04T04:22:05.999Z,100.00
2018-06-04T04:24:34.003Z,99.17
2018-06-04T04:27:02.000Z,98.37
2018-06-04T04:29:30.075Z,97.02
2018-06-04T04:31:58.202Z,96.75
2018-06-04T04:34:26.260Z,94.07
2018-06-04T04:36:54.259Z,94.52
2018-06-04T04:39:22.288Z,94.22
2018-06-04T04:41:50.335Z,94.47
2018-06-04T04:44:18.449Z,93.07
2018-06-04T04:46:46.475Z,90.20
2018-06-04T04:49:14.478Z,87.52
2018-06-04T04:51:42.508Z,90.36
2018-06-04T04:54:10.740Z,90.32
2018-06-04T04:56:38.854Z,89.93
2018-06-04T04:59:06.883Z,92.69
2018-06-04T05:01:34.893Z,95.33
2018-06-04T05:04:02.890Z,95.93
2018-06-04T05:06:30.922Z,95.88
2018-06-04T05:08:58.986Z,98.38
2018-06-04T05:11:27.107Z,97.75
2018-06-04T05:13:55.299Z,98.56
2018-06-04T05:16:23.437Z,97.10
2018-06-04T05:18:51.597Z,96.20
2018-06-04T05:21:19.757Z,93.14
2018-06-04T05:23:48.004Z,92.23
2018-06-04T05:26:16.404Z,92.81
2018-06-04T05:28:44.596Z,93.38
2018-06-04T05:31:12.758Z,94.76
2018-06-04T05:33:41.553Z,95.43
2018-06-04T05:36:09.914Z,95.87
2018-06-04T05:38:38.141Z,94.42
2018-06-04T05:41:06.304Z,93.24
2018-06-04T05:43:34.400Z,93.00
2018-06-04T05:46:02.820Z,91.59
2018-06-04T05:48:31.029Z,91.71
2018-06-04T05:50:59.149Z,91.59
2018-06-04T05:53:27.361Z,89.96
2018-06-04T05:55:55.620Z,89.63
2018-06-04T05:58:23.790Z,90.51
2018-06-04T06:00:51.846Z,91.55
2018-06-04T06:03:20.345Z,91.60
2018-06-04T06:05:48.619Z,91.45
2018-06-04T06:08:16.815Z,93.14
2018-06-04T06:10:44.880Z,91.37
2018-06-04T06:13:12.925Z,89.27
2018-06-04T06:15:40.943Z,86.46
2018-06-04T06:18:09.173Z,83.90
2018-06-04T06:20:37.197Z,82.73
2018-06-04T06:23:05.513Z,81.80
2018-06-04T06:25:33.652Z,82.45
2018-06-04T06:28:01.881Z,81.79
2018-06-04T06:30:29.891Z,82.70
2018-06-04T06:32:57.931Z,81.76
2018-06-04T06:35:25.960Z,78.98
2018-06-04T06:37:53.957Z,81.66
2018-06-04T06:40:22.234Z,80.91
2018-06-04T06:42:50.514Z,82.06
2018-06-04T06:45:18.594Z,77.21
2018-06-04T06:47:46.650Z,80.80
2018-06-04T06:50:14.790Z,77.46
2018-06-04T06:52:42.986Z,78.80
2018-06-04T06:55:10.957Z,70.69
2018-06-04T06:57:38.972Z,69.03
2018-06-04T07:00:07.424Z,75.03
2018-06-04T07:02:36.232Z,72.32
2018-06-04T07:05:04.270Z,72.42
2018-06-04T07:07:32.440Z,71.92
2018-06-04T07:10:00.572Z,73.65
2018-06-04T07:12:28.879Z,68.84
2018-06-04T07:14:57.718Z,71.81
2018-06-04T07:17:25.801Z,68.68
2018-06-04T07:19:53.804Z,68.68
2018-06-04T07:22:22.404Z,64.18
2018-06-04T07:24:50.438Z,67.63
2018-06-04T07:27:18.467Z,61.42
2018-06-04T07:29:46.611Z,62.82
2018-06-04T07:32:14.655Z,61.49
2018-06-04T07:34:42.649Z,65.09
2018-06-04T07:37:10.682Z,60.23
2018-06-04T07:39:38.785Z,61.33
2018-06-04T07:42:07.080Z,57.28
2018-06-04T07:44:36.190Z,56.44
2018-06-04T07:47:04.277Z,57.40
2018-06-04T07:49:32.300Z,55.12
2018-06-04T07:52:00.326Z,59.09
2018-06-04T07:54:28.322Z,54.99
2018-06-04T07:56:56.409Z,55.06
2018-06-04T07:59:24.531Z,54.48
2018-06-04T08:01:52.765Z,54.75
2018-06-04T08:04:21.339Z,55.97
2018-06-04T08:06:49.918Z,55.42
2018-06-04T08:09:18.296Z,56.43
2018-06-04T08:11:46.508Z,53.80
2018-06-04T08:14:15.098Z,53.19
2018-06-04T08:16:43.401Z,52.01
2018-06-04T08:19:11.898Z,54.72
2018-06-04T08:21:40.345Z,57.64
2018-06-04T08:24:08.565Z,56.81
2018-06-04T08:26:36.851Z,54.04
2018-06-04T08:29:05.248Z,54.53
2018-06-04T08:31:34.095Z,55.02
2018-06-04T08:34:02.460Z,48.95
2018-06-04T08:36:30.739Z,53.29
2018-06-04T08:38:59.080Z,51.27
2018-06-04T08:41:27.505Z,51.63
2018-06-04T08:43:55.901Z,50.61
2018-06-04T08:46:24.240Z,47.47
2018-06-04T08:48:52.645Z,47.72
2018-06-04T08:51:21.077Z,51.00
2018-06-04T08:53:49.393Z,48.79
2018-06-04T08:56:17.713Z,44.39
2018-06-04T08:58:46.001Z,45.32
2018-06-04T09:01:14.326Z,50.41
2018-06-04T09:03:42.641Z,53.33
2018-06-04T09:06:10.956Z,44.94
2018-06-04T09:08:39.447Z,46.55
2018-06-04T09:11:07.679Z,47.48
2018-06-04T09:13:36.157Z,46.57
2018-06-04T09:16:04.423Z,44.47
2018-06-04T09:18:32.876Z,43.57
2018-06-04T09:21:01.090Z,41.82
2018-06-04T09:23:29.116Z,46.26
2018-06-04T09:25:57.450Z,44.41
2018-06-04T09:28:25.798Z,42.18
2018-06-04T09:30:54.135Z,43.99
2018-06-04T09:33:22.557Z,45.99
2018-06-04T09:35:50.560Z,42.15
2018-06-04T09:38:18.751Z,43.38
2018-06-04T09:40:46.977Z,45.17
2018-06-04T09:43:15.204Z,46.58
2018-06-04T09:45:43.432Z,43.95
2018-06-04T09:48:11.682Z,43.01
2018-06-04T09:50:39.969Z,42.78
2018-06-04T09:53:08.124Z,38.06
2018-06-04T09:55:36.328Z,44.59
2018-06-04T09:58:04.518Z,43.22
2018-06-04T10:00:35.460Z,42.74
2018-06-04T10:03:04.689Z,46.42
2018-06-04T10:05:32.861Z,42.11
2018-06-04T10:08:01.072Z,44.99
2018-06-04T10:10:29.271Z,45.66
2018-06-04T10:12:57.397Z,43.69
2018-06-04T10:15:26.152Z,44.09
2018-06-04T10:17:54.260Z,43.12
2018-06-04T10:20:22.509Z,43.39
2018-06-04T10:22:50.839Z,46.47
2018-06-04T10:25:19.211Z,46.75
2018-06-04T10:27:47.562Z,50.03
2018-06-04T10:30:15.592Z,45.58
2018-06-04T10:32:43.642Z,48.38
2018-06-04T10:35:11.568Z,47.05
2018-06-04T10:37:39.654Z,44.94
2018-06-04T10:40:08.353Z,47.52
2018-06-04T10:42:36.455Z,47.30
2018-06-04T10:45:04.652Z,45.16
2018-06-04T10:47:32.698Z,46.59
2018-06-04T10:50:01.405Z,46.60
2018-06-04T10:52:29.590Z,46.99
2018-06-04T10:54:57.717Z,41.97
2018-06-04T10:57:25.835Z,40.96
2018-06-04T10:59:53.976Z,46.25
2018-06-04T11:02:22.187Z,44.97
2018-06-04T11:04:50.422Z,44.98
2018-06-04T11:07:18.749Z,46.33
2018-06-04T11:09:46.846Z,42.94
2018-06-04T11:12:15.111Z,40.15
2018-06-04T11:14:43.344Z,42.21
2018-06-04T11:17:11.494Z,41.35
2018-06-04T11:19:39.747Z,39.48
2018-06-04T11:22:08.037Z,44.04
2018-06-04T11:24:36.328Z,41.36
2018-06-04T11:27:04.643Z,35.35
2018-06-04T11:29:32.853Z,38.05
2018-06-04T11:32:01.106Z,40.26
2018-06-04T11:34:29.205Z,40.39
2018-06-04T11:36:57.295Z,40.16
2018-06-04T11:39:25.645Z,42.95
2018-06-04T11:41:53.834Z,38.85
2018-06-04T11:44:22.068Z,40.67
2018-06-04T11:46:50.312Z,42.83
2018-06-04T11:49:18.555Z,42.60
2018-06-04T11:51:46.814Z,41.68
2018-06-04T11:54:14.996Z,40.64
2018-06-04T11:56:43.296Z,41.15
2018-06-04T11:59:11.477Z,43.06
2018-06-04T12:01:39.621Z,40.85
2018-06-04T12:04:07.725Z,42.23
2018-06-04T12:06:35.783Z,42.39
2018-06-04T12:09:06.516Z,44.92
2018-06-04T12:11:35.090Z,42.93
2018-06-04T12:14:03.375Z,41.82
2018-06-04T12:16:31.558Z,44.85
2018-06-04T12:18:59.772Z,44.15
2018-06-04T12:21:27.955Z,46.45
2018-06-04T12:23:56.108Z,45.88
2018-06-04T12:26:24.273Z,46.25
2018-06-04T12:28:52.509Z,44.55
2018-06-04T12:31:20.959Z,47.82
2018-06-04T12:33:49.598Z,42.81
2018-06-04T12:36:17.821Z,42.99
2018-06-04T12:38:46.328Z,46.64
2018-06-04T12:41:14.496Z,44.61
2018-06-04T12:43:42.632Z,46.54
2018-06-04T12:46:10.999Z,47.88
2018-06-04T12:48:39.572Z,46.61
2018-06-04T12:51:08.219Z,45.72
2018-06-04T12:53:36.643Z,45.05
2018-06-04T12:56:04.794Z,44.85
2018-06-04T12:58:32.983Z,45.12
2018-06-04T13:01:01.343Z,44.69
2018-06-04T13:03:29.402Z,45.32
2018-06-04T13:05:57.533Z,45.11
2018-06-04T13:08:25.807Z,49.01
2018-06-04T13:10:53.991Z,44.65
2018-06-04T13:13:22.224Z,46.00
2018-06-04T13:15:50.467Z,43.36
2018-06-04T13:18:18.553Z,44.70
2018-06-04T13:20:46.611Z,42.60
2018-06-04T13:23:14.907Z,42.45
2018-06-04T13:25:43.049Z,42.78
2018-06-04T13:28:11.131Z,37.88
2018-06-04T13:30:39.243Z,38.45
2018-06-04T13:33:07.436Z,39.76
2018-06-04T13:35:35.611Z,40.59
2018-06-04T13:38:03.823Z,38.61
2018-06-04T13:40:31.994Z,38.58
2018-06-04T13:43:00.149Z,39.39
2018-06-04T13:45:29.172Z,39.33
2018-06-04T13:47:57.361Z,40.61
2018-06-04T13:50:25.687Z,40.99
2018-06-04T13:52:53.864Z,42.09
2018-06-04T13:55:21.938Z,40.78
2018-06-04T13:57:50.023Z,37.09
2018-06-04T14:00:18.149Z,37.32
2018-06-04T14:02:46.209Z,35.89
2018-06-04T14:05:14.320Z,35.96
2018-06-04T14:07:42.327Z,39.44
2018-06-04T14:10:10.412Z,38.49
2018-06-04T14:12:38.920Z,36.86
2018-06-04T14:15:07.134Z,36.75
2018-06-04T14:17:35.274Z,36.54
2018-06-04T14:20:03.416Z,39.25
2018-06-04T14:22:31.512Z,38.08
2018-06-04T14:24:59.633Z,37.01
2018-06-04T14:27:27.960Z,37.62
2018-06-04T14:29:56.136Z,36.05
2018-06-04T14:32:24.212Z,36.72
2018-06-04T14:34:52.379Z,37.75
2018-06-04T14:37:20.501Z,35.86
2018-06-04T14:39:48.557Z,35.35
2018-06-04T14:42:16.897Z,33.63
2018-06-04T14:44:45.389Z,34.06
2018-06-04T14:47:13.485Z,34.72
2018-06-04T14:49:41.687Z,34.68
2018-06-04T14:52:09.748Z,38.18
2018-06-04T14:54:37.843Z,35.52
2018-06-04T14:57:05.926Z,38.38
2018-06-04T14:59:34.057Z,35.38
2018-06-04T15:02:02.242Z,37.93
2018-06-04T15:04:30.238Z,37.35
2018-06-04T15:06:58.551Z,37.09
2018-06-04T15:09:26.863Z,37.99
2018-06-04T15:11:54.983Z,39.72
2018-06-04T15:14:23.226Z,39.14
2018-06-04T15:16:51.411Z,42.39
2018-06-04T15:19:19.512Z,39.36
2018-06-04T15:21:47.739Z,42.16
2018-06-04T15:24:15.960Z,40.07
2018-06-04T15:26:44.174Z,41.13
2018-06-04T15:29:12.721Z,40.95
2018-06-04T15:31:40.954Z,42.59
2018-06-04T15:34:09.171Z,44.32
2018-06-04T15:36:37.258Z,43.42
2018-06-04T15:39:07.707Z,43.61
2018-06-04T15:41:35.735Z,47.75
2018-06-04T15:44:03.878Z,45.26
2018-06-04T15:46:32.202Z,46.68
2018-06-04T15:49:00.307Z,50.58
2018-06-04T15:51:28.850Z,51.15
2018-06-04T15:53:56.906Z,47.86
2018-06-04T15:56:25.091Z,50.61
2018-06-04T15:58:53.358Z,51.04
2018-06-04T16:01:21.403Z,48.29
2018-06-04T16:03:49.498Z,51.06
2018-06-04T16:06:17.552Z,50.52
2018-06-04T16:08:45.700Z,56.47
2018-06-04T16:11:13.741Z,51.16
2018-06-04T16:13:41.950Z,50.02
2018-06-04T16:16:10.120Z,52.38
2018-06-04T16:18:38.304Z,54.73
2018-06-04T16:21:06.463Z,54.91
2018-06-04T16:23:34.885Z,54.17
2018-06-04T16:26:03.041Z,52.46
2018-06-04T16:28:31.413Z,53.73
2018-06-04T16:30:59.832Z,55.03
2018-06-04T16:33:27.990Z,57.93
2018-06-04T16:35:56.392Z,56.49
2018-06-04T16:38:24.515Z,55.54
2018-06-04T16:40:53.038Z,55.26
2018-06-04T16:43:21.051Z,58.94
2018-06-04T16:45:49.446Z,57.01
2018-06-04T16:48:17.704Z,57.31
2018-06-04T16:50:45.807Z,59.09
2018-06-04T16:53:13.908Z,58.39
2018-06-04T16:55:42.116Z,59.00
2018-06-04T16:58:10.377Z,57.81
2018-06-04T17:00:38.492Z,59.78
2018-06-04T17:03:06.727Z,59.26
2018-06-04T17:05:34.900Z,59.44
2018-06-04T17:08:03.208Z,58.79
2018-06-04T17:10:31.272Z,58.89
2018-06-04T17:12:59.582Z,58.34
2018-06-04T17:15:27.820Z,60.43
2018-06-04T17:17:55.885Z,59.95
2018-06-04T17:20:23.935Z,59.96
2018-06-04T17:22:52.161Z,59.94
2018-06-04T17:25:20.288Z,60.64
2018-06-04T17:27:48.332Z,60.51
2018-06-04T17:30:16.650Z,60.23
2018-06-04T17:32:44.794Z,61.46
2018-06-04T17:35:13.222Z,60.92
2018-06-04T17:37:41.366Z,59.95
2018-06-04T17:40:09.657Z,60.93
2018-06-04T17:42:37.918Z,61.16
2018-06-04T17:45:06.281Z,61.36
2018-06-04T17:47:34.538Z,62.00
2018-06-04T17:50:03.420Z,62.24
2018-06-04T17:52:31.763Z,60.85
2018-06-04T17:55:00.332Z,62.04
2018-06-04T17:57:28.525Z,60.93
2018-06-04T17:59:56.836Z,60.83
2018-06-04T18:02:25.204Z,64.22
2018-06-04T18:04:53.397Z,64.15
2018-06-04T18:07:21.464Z,64.25
2018-06-04T18:09:49.572Z,63.85
2018-06-04T18:12:17.631Z,64.70
2018-06-04T18:14:45.881Z,65.27
2018-06-04T18:17:14.217Z,67.04
2018-06-04T18:19:44.369Z,68.13
2018-06-04T18:22:14.803Z,68.35
2018-06-04T18:24:45.146Z,67.86
2018-06-04T18:27:15.587Z,67.66
2018-06-04T18:29:46.184Z,68.91
2018-06-04T18:32:15.030Z,69.98
2018-06-04T18:34:43.990Z,71.62
2018-06-04T18:37:12.486Z,70.65
2018-06-04T18:39:41.668Z,70.17
2018-06-04T18:42:11.868Z,69.94
2018-06-04T18:44:42.428Z,71.04
2018-06-04T18:47:11.027Z,70.73
2018-06-04T18:49:39.259Z,70.48
2018-06-04T18:52:07.449Z,72.06
2018-06-04T18:54:35.667Z,71.79
2018-06-04T18:57:03.789Z,72.40
2018-06-04T18:59:32.108Z,72.60
2018-06-04T19:02:00.188Z,73.87
2018-06-04T19:04:28.364Z,73.63
2018-06-04T19:06:56.748Z,74.23
2018-06-04T19:09:24.972Z,73.64
2018-06-04T19:11:53.117Z,75.52
2018-06-04T19:14:21.432Z,74.23
2018-06-04T19:16:49.869Z,75.75
2018-06-04T19:19:17.991Z,75.82
2018-06-04T19:21:46.192Z,75.29
2018-06-04T19:24:14.449Z,75.57
2018-06-04T19:26:42.629Z,76.44
2018-06-04T19:29:10.832Z,75.59
2018-06-04T19:31:39.045Z,76.53
2018-06-04T19:34:07.581Z,75.54
2018-06-04T19:36:35.657Z,74.30
2018-06-04T19:39:05.876Z,73.41
2018-06-04T19:41:34.128Z,72.11
2018-06-04T19:44:02.265Z,71.24
2018-06-04T19:46:30.523Z,71.00
2018-06-04T19:48:58.749Z,71.13
2018-06-04T19:51:26.938Z,71.77
2018-06-04T19:53:55.174Z,72.17
2018-06-04T19:56:23.283Z,74.17
2018-06-04T19:58:51.505Z,74.65
2018-06-04T20:01:19.614Z,73.29
2018-06-04T20:03:47.784Z,74.77
2018-06-04T20:06:15.979Z,75.30
2018-06-04T20:08:44.056Z,76.25
2018-06-04T20:11:12.272Z,75.89
2018-06-04T20:13:40.486Z,76.54
2018-06-04T20:16:08.532Z,77.07
2018-06-04T20:18:36.732Z,75.97
2018-06-04T20:21:04.871Z,76.36
2018-06-04T20:23:33.100Z,76.72
2018-06-04T20:26:01.494Z,77.27
2018-06-04T20:28:29.601Z,77.95
2018-06-04T20:30:57.724Z,78.53
2018-06-04T20:33:25.781Z,79.12
2018-06-04T20:35:53.965Z,78.82
2018-06-04T20:38:22.099Z,80.83
2018-06-04T20:40:50.261Z,78.72
2018-06-04T20:43:18.645Z,78.12
2018-06-04T20:45:46.940Z,79.22
2018-06-04T20:48:15.371Z,79.07
2018-06-04T20:50:43.565Z,79.22
2018-06-04T20:53:11.881Z,79.22
2018-06-04T20:55:39.981Z,80.01
2018-06-04T20:58:08.100Z,79.92
2018-06-04T21:00:36.166Z,80.86
2018-06-04T21:03:04.379Z,80.04
2018-06-04T21:05:32.444Z,80.80
2018-06-04T21:08:00.533Z,81.13
2018-06-04T21:10:28.596Z,82.40
2018-06-04T21:12:56.736Z,82.39
2018-06-04T21:15:24.775Z,82.30
2018-06-04T21:17:52.780Z,82.97
2018-06-04T21:20:20.922Z,83.58
2018-06-04T21:22:49.004Z,83.24
2018-06-04T21:25:17.048Z,83.11
2018-06-04T21:27:45.136Z,82.59
2018-06-04T21:30:13.225Z,83.79
2018-06-04T21:32:41.283Z,82.52
2018-06-04T21:35:09.293Z,84.46
2018-06-04T21:37:37.392Z,83.84
2018-06-04T21:40:05.601Z,84.12
2018-06-04T21:42:33.680Z,84.90
2018-06-04T21:45:01.654Z,84.38
2018-06-04T21:47:29.699Z,85.75
2018-06-04T21:49:57.688Z,85.31
2018-06-04T21:52:25.651Z,85.32
2018-06-04T21:54:53.715Z,85.15
2018-06-04T21:57:21.696Z,86.01
2018-06-04T21:59:49.803Z,84.99
2018-06-04T22:02:17.760Z,86.27
2018-06-04T22:04:45.744Z,85.11
2018-06-04T22:07:13.790Z,85.43
2018-06-04T22:09:41.816Z,86.00
2018-06-04T22:12:09.822Z,85.67
2018-06-04T22:14:37.822Z,85.68
2018-06-04T22:17:05.957Z,86.89
2018-06-04T22:19:33.995Z,86.92
2018-06-04T22:22:02.136Z,86.76
2018-06-04T22:24:30.124Z,87.10
2018-06-04T22:26:58.143Z,86.65
2018-06-04T22:29:26.188Z,87.06
2018-06-04T22:31:54.373Z,86.26
2018-06-04T22:34:22.398Z,86.73
2018-06-04T22:36:50.528Z,86.58
2018-06-04T22:39:18.500Z,86.20
2018-06-04T22:41:46.551Z,86.68
2018-06-04T22:44:14.641Z,86.65
2018-06-04T22:46:42.663Z,86.55
2018-06-04T22:49:10.729Z,86.36
2018-06-04T22:51:38.759Z,86.71
2018-06-04T22:54:06.721Z,87.05
2018-06-04T22:56:34.760Z,87.74
2018-06-04T22:59:02.792Z,88.02
2018-06-04T23:01:30.713Z,87.55
2018-06-04T23:03:58.755Z,86.83
2018-06-04T23:06:26.781Z,86.02
2018-06-04T23:08:54.779Z,84.44
2018-06-04T23:11:22.774Z,84.56
2018-06-04T23:13:50.832Z,85.84
2018-06-04T23:16:18.863Z,86.38
2018-06-04T23:18:46.921Z,86.76
2018-06-04T23:21:14.917Z,87.48
2018-06-04T23:23:42.938Z,88.49
2018-06-04T23:26:10.984Z,89.02
2018-06-04T23:28:39.019Z,89.79
2018-06-04T23:31:07.180Z,88.50
2018-06-04T23:33:35.213Z,87.11
2018-06-04T23:36:03.260Z,87.77
2018-06-04T23:38:31.211Z,88.61
2018-06-04T23:40:59.223Z,89.35
2018-06-04T23:43:27.260Z,88.44
2018-06-04T23:45:55.216Z,88.80
2018-06-04T23:48:23.239Z,88.53
2018-06-04T23:50:51.262Z,90.24
2018-06-04T23:53:19.234Z,89.79
2018-06-04T23:55:47.211Z,89.38
2018-06-04T23:58:15.269Z,89.69
